메인 페이지
METAR-TAF:

METAR-TAF

공항 :

라바트, 모로코

위도: 34-03N, 경도: 006-46W, 고도: 84m

현재 날씨관측

예보는 27분 전, 09:00시(UTC)에 발표되었습니다.
무풍
온도 13°C
습도 100%
기압 1019 hPa
시정: 4000m
고도 600ft 상공 구름 조금
고도 1600ft 상공 구름 보통
박무

METAR: GMME 200900Z 00000KT 4000 BR FEW006 SCT016 13/13 Q1019 NOSIG

시각: 10:27 (09:27 UTC)

예보

예보는 4 시간 27분 전, 05:00시(UTC)에 발표되었습니다.
예보 대상 시간: 20일 06시부터 21일 12시까지 (UTC)
북북서12kt
시정: 8000m
고도 1300ft 상공 구름 보통
고도 7000ft 상공 구름 많음
전환 중
20일 20시부터 20일 22시까지 (UTC)
6kt

TAF: GMME 200500Z 2006/2112 34012KT 8000 SCT013 BKN070 BECMG 2020/2022 18006KT

4,000개 이상의 공항 관측 자료 및 예보 (METAR 및 TAF 보고).

지도상에서 검색 가능한 기상관측소가 노란 점과 빨간 점으로 표시되어 있습니다.

기상관측소 명을 보려면 표시 위로 마우스를 이동하세요.

날씨 관측과 예보를 보려면 클릭하세요.

지도 변경 : 확대하려면 엑스 표시가 있는 녹색 버튼, 축소하려면 빼기 표시가 있는 녹색 버튼, 다음 페이지의 지도를 보려면 녹색 화살표를 클릭하세요.


METAR-TAF: